EKBH weather

Svæveflyvecenter Arnborg
Arnborg, Central Jutland, Denmark

Public forecast

Using degrees Celsius for public forecast. Weather courtesy of forecast.io.

METAR (pilot weather report)

Closest report is Billund Airport, 17.0 nm (31.4 km) SSE. Retrieved 2019/05/23 03:20 UTC (0 seconds ago):

EKBI 230320Z 20002KT 9999 R09/P1500N R27/0500D BCFG NSC 05/04 Q1015

TAF (pilot weather forecast)

Forecast is more than 12 hours old.

Closest forecast is Billund Airport, 17.0 nm (31.4 km) SSE. Retrieved 2019/05/22 00:09 UTC (1 day ago):

TAF EKBI 222258Z 2300/2324 23008KT 9999 SCT020 PROB40 2303/2307 BKN008 TEMPO 2310/2315 SCT030TCU